createdAt,value
2018-11-22T00:02:41.467Z,44.77
2018-11-22T00:05:11.757Z,45.70
2018-11-22T00:07:47.803Z,45.20
2018-11-22T00:12:54.152Z,46.00
2018-11-22T00:15:35.171Z,45.90
2018-11-22T00:18:12.541Z,43.60
2018-11-22T00:20:45.411Z,45.27
2018-11-22T00:23:26.084Z,46.23
2018-11-22T00:26:03.209Z,45.10
2018-11-22T00:31:10.929Z,42.80
2018-11-22T00:36:32.501Z,41.90
2018-11-22T00:39:06.226Z,41.93
2018-11-22T00:41:39.588Z,45.10
2018-11-22T00:44:15.797Z,45.23
2018-11-22T00:46:53.920Z,40.73
2018-11-22T00:49:30.940Z,40.87
2018-11-22T00:52:02.848Z,44.83
2018-11-22T00:54:45.510Z,45.10
2018-11-22T00:57:20.901Z,45.63
2018-11-22T01:02:32.792Z,44.13
2018-11-22T01:07:41.929Z,47.47
2018-11-22T01:10:18.595Z,44.33
2018-11-22T01:12:59.218Z,43.43
2018-11-22T01:15:32.539Z,44.90
2018-11-22T01:18:08.864Z,45.30
2018-11-22T01:20:38.580Z,43.03
2018-11-22T01:25:46.818Z,46.20
2018-11-22T01:28:20.720Z,45.90
2018-11-22T01:30:53.913Z,47.07
2018-11-22T01:33:27.880Z,45.77
2018-11-22T01:36:00.648Z,46.57
2018-11-22T01:38:30.403Z,41.83
2018-11-22T01:43:40.361Z,44.07
2018-11-22T01:46:19.654Z,42.93
2018-11-22T01:48:49.425Z,42.93
2018-11-22T01:51:19.172Z,43.20
2018-11-22T01:53:48.884Z,44.17
2018-11-22T01:56:18.679Z,44.23
2018-11-22T02:01:24.442Z,41.90
2018-11-22T02:04:04.221Z,42.87
2018-11-22T02:06:34.306Z,44.00
2018-11-22T02:09:05.363Z,45.57
2018-11-22T02:11:35.043Z,42.47
2018-11-22T02:14:04.862Z,46.10
2018-11-22T02:16:34.564Z,43.67
2018-11-22T02:19:04.285Z,44.60
2018-11-22T02:21:34.565Z,44.63
2018-11-22T02:24:05.137Z,44.27
2018-11-22T02:26:34.836Z,41.77
2018-11-22T02:29:04.561Z,40.00
2018-11-22T02:31:34.270Z,45.03
2018-11-22T02:34:04.080Z,41.23
2018-11-22T02:36:33.764Z,41.50
2018-11-22T02:39:03.599Z,39.63
2018-11-22T02:41:33.269Z,43.70
2018-11-22T02:44:06.285Z,42.10
2018-11-22T02:46:35.968Z,41.70
2018-11-22T02:49:06.014Z,41.33
2018-11-22T02:51:35.778Z,41.50
2018-11-22T02:54:05.495Z,40.07
2018-11-22T02:56:35.222Z,41.17
2018-11-22T02:59:05.775Z,41.50
2018-11-22T03:01:35.452Z,40.60
2018-11-22T03:04:05.236Z,43.73
2018-11-22T03:06:34.888Z,42.65
2018-11-22T03:09:05.029Z,42.07
2018-11-22T03:11:34.715Z,41.00
2018-11-22T03:14:04.407Z,42.40
2018-11-22T03:16:34.103Z,41.70
2018-11-22T03:19:03.873Z,40.57
2018-11-22T03:21:33.573Z,41.60
2018-11-22T03:24:03.332Z,40.40
2018-11-22T03:26:33.024Z,45.43
2018-11-22T03:29:02.677Z,42.00
2018-11-22T03:31:32.411Z,42.77
2018-11-22T03:34:02.390Z,43.27
2018-11-22T03:36:32.095Z,42.07
2018-11-22T03:39:01.840Z,39.80
2018-11-22T03:41:32.018Z,44.23
2018-11-22T03:44:01.802Z,40.10
2018-11-22T03:46:31.702Z,42.23
2018-11-22T03:51:33.535Z,40.10
2018-11-22T03:54:06.719Z,43.20
2018-11-22T03:56:43.540Z,41.43
2018-11-22T03:59:13.252Z,38.45
2018-11-22T04:01:42.978Z,41.10
2018-11-22T04:04:12.725Z,38.70
2018-11-22T04:06:43.301Z,41.00
2018-11-22T04:09:14.259Z,39.63
2018-11-22T04:11:46.461Z,38.50
2018-11-22T04:14:16.700Z,40.33
2018-11-22T04:16:46.379Z,41.80
2018-11-22T04:19:16.920Z,39.97
2018-11-22T04:24:17.471Z,39.67
2018-11-22T04:29:26.551Z,37.50
2018-11-22T04:31:57.823Z,39.20
2018-11-22T04:37:05.998Z,36.33
2018-11-22T04:44:49.923Z,37.05
2018-11-22T04:47:20.553Z,37.60
2018-11-22T04:49:50.793Z,36.53
2018-11-22T04:52:20.485Z,38.07
2018-11-22T04:54:50.134Z,35.23
2018-11-22T04:57:20.121Z,36.73
2018-11-22T04:59:50.092Z,34.87
2018-11-22T05:02:20.150Z,35.07
2018-11-22T05:04:49.855Z,37.63
2018-11-22T05:07:19.795Z,39.27
2018-11-22T05:12:20.420Z,36.90
2018-11-22T05:14:53.258Z,36.53
2018-11-22T05:17:23.362Z,35.63
2018-11-22T05:19:53.104Z,36.23
2018-11-22T05:22:23.062Z,35.20
2018-11-22T05:24:52.855Z,36.10
2018-11-22T05:27:22.535Z,35.70
2018-11-22T05:29:52.248Z,33.97
2018-11-22T05:32:22.102Z,36.07
2018-11-22T05:34:53.322Z,37.47
2018-11-22T05:40:26.073Z,35.43
2018-11-22T05:42:56.071Z,36.90
2018-11-22T05:45:27.467Z,34.77
2018-11-22T05:47:57.185Z,34.70
2018-11-22T05:50:28.259Z,33.80
2018-11-22T05:53:00.012Z,33.60
2018-11-22T05:55:30.337Z,35.00
2018-11-22T05:58:00.035Z,32.87
2018-11-22T06:00:32.072Z,36.53
2018-11-22T06:03:03.014Z,35.75
2018-11-22T06:05:33.988Z,35.57
2018-11-22T06:10:35.042Z,32.70
2018-11-22T06:13:05.553Z,33.40
2018-11-22T06:15:35.322Z,33.23
2018-11-22T06:18:05.067Z,34.05
2018-11-22T06:23:05.253Z,33.40
2018-11-22T06:38:01.531Z,38.27
2018-11-22T06:40:31.265Z,34.00
2018-11-22T06:43:02.229Z,34.50
2018-11-22T06:45:33.246Z,34.00
2018-11-22T06:48:02.892Z,36.47
2018-11-22T06:50:32.564Z,34.90
2018-11-22T06:53:02.544Z,36.67
2018-11-22T06:55:33.753Z,35.60
2018-11-22T06:58:03.491Z,35.13
2018-11-22T07:00:34.854Z,35.43
2018-11-22T07:03:08.827Z,36.87
2018-11-22T07:05:38.575Z,37.00
2018-11-22T07:08:08.356Z,34.63
2018-11-22T07:10:38.381Z,33.87
2018-11-22T07:13:08.462Z,36.10
2018-11-22T07:15:38.473Z,36.90
2018-11-22T07:18:08.929Z,52.60
2018-11-22T07:20:38.699Z,64.20
2018-11-22T07:23:08.439Z,131.63
2018-11-22T07:25:38.622Z,55.73
2018-11-22T07:28:08.722Z,42.50
2018-11-22T07:30:42.465Z,41.50
2018-11-22T07:33:10.076Z,38.80
2018-11-22T07:35:39.919Z,40.87
2018-11-22T07:38:10.393Z,42.90
2018-11-22T07:40:40.133Z,41.10
2018-11-22T08:06:28.497Z,49.20
2018-11-22T08:08:58.822Z,40.67
2018-11-22T08:18:30.349Z,45.43
2018-11-22T08:21:04.749Z,41.47
2018-11-22T08:23:30.141Z,42.80
2018-11-22T08:26:00.668Z,68.03
2018-11-22T08:28:30.371Z,47.87
2018-11-22T08:31:00.071Z,43.73
2018-11-22T08:33:29.843Z,41.33
2018-11-22T08:35:59.628Z,38.33
2018-11-22T08:38:29.485Z,39.80
2018-11-22T08:40:59.214Z,38.27
2018-11-22T08:43:29.047Z,38.00
2018-11-22T08:45:59.165Z,39.13
2018-11-22T08:48:28.957Z,37.50
2018-11-22T08:50:58.743Z,35.90
2018-11-22T08:53:28.535Z,40.37
2018-11-22T08:56:01.323Z,38.17
2018-11-22T08:58:32.344Z,41.37
2018-11-22T09:01:02.839Z,39.57
2018-11-22T12:17:42.500Z,34.23
2018-11-22T12:20:11.987Z,34.27
2018-11-22T12:22:42.139Z,32.50
2018-11-22T12:25:12.740Z,33.40
2018-11-22T12:27:42.122Z,35.77
2018-11-22T12:30:23.783Z,35.80
2018-11-22T12:32:58.575Z,34.63
2018-11-22T12:35:32.356Z,39.00
2018-11-22T12:38:06.363Z,35.50
2018-11-22T12:40:35.100Z,37.67
2018-11-22T12:43:03.706Z,38.07
2018-11-22T12:45:32.796Z,37.47
2018-11-22T12:48:01.262Z,40.30
2018-11-22T12:50:29.805Z,37.33
2018-11-22T12:52:58.665Z,35.07
2018-11-22T12:55:27.683Z,36.90
2018-11-22T12:57:56.821Z,36.17
2018-11-22T13:00:25.572Z,39.33
2018-11-22T13:02:54.242Z,40.87
2018-11-22T13:05:22.760Z,34.00
2018-11-22T13:07:51.343Z,37.27
2018-11-22T13:10:20.461Z,32.47
2018-11-22T13:12:50.049Z,33.13
2018-11-22T13:15:20.173Z,30.30
2018-11-22T13:17:48.792Z,32.37
2018-11-22T13:20:19.072Z,38.37
2018-11-22T13:22:48.795Z,33.00
2018-11-22T13:25:19.107Z,33.77
2018-11-22T13:27:47.727Z,34.83
2018-11-22T13:30:19.193Z,33.50
2018-11-22T13:32:48.412Z,35.03
2018-11-22T13:35:18.008Z,30.27
2018-11-22T13:37:48.508Z,31.67
2018-11-22T13:40:17.275Z,30.93
2018-11-22T13:42:46.757Z,30.07
2018-11-22T13:45:19.251Z,35.97
2018-11-22T13:47:49.302Z,30.63
2018-11-22T13:50:21.717Z,33.90
2018-11-22T13:52:52.445Z,32.33
2018-11-22T13:55:21.170Z,32.13
2018-11-22T13:57:50.347Z,36.80
2018-11-22T14:00:23.696Z,34.07
2018-11-22T14:02:55.987Z,33.43
2018-11-22T14:05:24.630Z,35.10
2018-11-22T14:07:53.258Z,41.50
2018-11-22T14:10:22.172Z,34.80
2018-11-22T14:12:51.075Z,33.87
2018-11-22T14:15:22.089Z,38.30
2018-11-22T14:17:51.805Z,33.00
2018-11-22T14:20:22.173Z,36.90
2018-11-22T14:22:50.970Z,36.57
2018-11-22T14:25:19.624Z,35.67
2018-11-22T14:27:49.215Z,39.43
2018-11-22T14:30:19.039Z,48.47
2018-11-22T14:32:48.394Z,39.37
2018-11-22T14:35:17.983Z,41.23
2018-11-22T14:37:46.621Z,42.37
2018-11-22T14:40:16.754Z,41.27
2018-11-22T14:42:46.288Z,46.47
2018-11-22T14:45:15.628Z,43.30
2018-11-22T14:47:45.374Z,41.93
2018-11-22T14:50:18.746Z,41.37
2018-11-22T14:52:52.393Z,41.30
2018-11-22T14:55:21.033Z,44.30
2018-11-22T14:57:50.028Z,37.53
2018-11-22T15:00:18.519Z,34.90
2018-11-22T15:02:47.975Z,32.53
2018-11-22T15:05:16.903Z,31.10
2018-11-22T15:07:45.821Z,27.23
2018-11-22T15:10:15.622Z,26.50
2018-11-22T15:12:45.264Z,26.90
2018-11-22T15:15:16.400Z,26.40
2018-11-22T15:17:44.878Z,27.27
2018-11-22T15:20:14.972Z,29.50
2018-11-22T15:22:44.297Z,25.00
2018-11-22T15:25:14.030Z,28.17
2018-11-22T15:27:43.122Z,28.97
2018-11-22T15:30:14.833Z,26.10
2018-11-22T15:32:43.325Z,26.70
2018-11-22T15:35:13.387Z,27.87
2018-11-22T15:37:42.275Z,27.80
2018-11-22T15:40:14.002Z,27.00
2018-11-22T15:42:42.957Z,28.30
2018-11-22T15:45:14.268Z,26.83
2018-11-22T15:47:42.914Z,27.30
2018-11-22T15:50:13.811Z,29.57
2018-11-22T15:52:42.907Z,29.30
2018-11-22T15:55:12.109Z,33.97
2018-11-22T15:57:45.318Z,29.80
2018-11-22T16:00:16.756Z,29.63
2018-11-22T16:02:46.088Z,32.13
2018-11-22T16:05:15.290Z,29.30
2018-11-22T16:07:44.096Z,31.63
2018-11-22T16:10:18.325Z,33.27
2018-11-22T16:12:47.683Z,29.90
2018-11-22T16:15:19.539Z,33.40
2018-11-22T16:17:48.139Z,32.30
2018-11-22T16:20:16.950Z,32.00
2018-11-22T16:22:45.609Z,26.83
2018-11-22T16:25:14.128Z,29.40
2018-11-22T16:27:42.786Z,29.20
2018-11-22T16:30:20.512Z,26.70
2018-11-22T16:32:49.065Z,27.97
2018-11-22T16:35:18.411Z,28.53
2018-11-22T16:37:47.040Z,26.87
2018-11-22T16:40:17.955Z,26.67
2018-11-22T16:42:47.489Z,27.00
2018-11-22T16:45:21.576Z,27.70
2018-11-22T16:47:50.180Z,28.03
2018-11-22T16:50:20.276Z,27.17
2018-11-22T16:52:49.014Z,28.23
2018-11-22T16:55:17.938Z,29.07
2018-11-22T16:57:49.609Z,26.33
2018-11-22T17:00:21.998Z,29.20
2018-11-22T17:02:51.856Z,27.27
2018-11-22T17:05:21.092Z,32.73
2018-11-22T17:07:49.853Z,28.43
2018-11-22T17:10:21.856Z,27.00
2018-11-22T17:12:51.880Z,32.37
2018-11-22T17:15:23.238Z,28.47
2018-11-22T17:17:52.318Z,28.07
2018-11-22T17:20:22.119Z,29.00
2018-11-22T17:22:51.320Z,28.30
2018-11-22T17:25:22.163Z,28.00
2018-11-22T17:27:52.266Z,30.37
2018-11-22T17:30:24.589Z,33.03
2018-11-22T17:32:53.271Z,32.50
2018-11-22T17:35:23.113Z,35.20
2018-11-22T17:37:53.001Z,31.97
2018-11-22T17:40:23.296Z,29.57
2018-11-22T17:42:56.689Z,32.23
2018-11-22T17:45:27.152Z,31.30
2018-11-22T17:47:56.342Z,30.30
2018-11-22T17:50:28.358Z,28.23
2018-11-22T17:52:57.492Z,28.77
2018-11-22T17:55:27.935Z,29.90
2018-11-22T17:57:56.939Z,28.40
2018-11-22T18:00:32.692Z,30.10
2018-11-22T18:03:03.156Z,27.80
2018-11-22T18:05:33.144Z,29.43
2018-11-22T18:08:02.183Z,30.10
2018-11-22T18:10:32.635Z,28.37
2018-11-22T18:13:01.920Z,28.43
2018-11-22T18:15:33.994Z,28.07
2018-11-22T18:18:03.335Z,30.90
2018-11-22T18:20:33.323Z,28.53
2018-11-22T18:23:03.338Z,27.67
2018-11-22T18:25:33.212Z,30.30
2018-11-22T18:28:01.850Z,31.37
2018-11-22T18:30:31.770Z,30.30
2018-11-22T18:33:02.019Z,31.27
2018-11-22T18:35:30.525Z,31.67
2018-11-22T18:37:59.088Z,33.77
2018-11-22T18:40:29.228Z,32.17
2018-11-22T18:42:58.776Z,33.50
2018-11-22T18:45:31.666Z,29.43
2018-11-22T18:48:01.124Z,30.03
2018-11-22T18:50:36.153Z,29.67
2018-11-22T18:53:04.826Z,31.10
2018-11-22T18:55:33.322Z,30.47
2018-11-22T18:58:03.415Z,32.27
2018-11-22T19:00:37.524Z,33.20
2018-11-22T19:03:08.326Z,32.37
2018-11-22T19:05:38.323Z,31.63
2018-11-22T19:08:07.491Z,38.13
2018-11-22T19:10:37.785Z,42.93
2018-11-22T19:13:07.779Z,35.10
2018-11-22T19:15:38.387Z,33.13
2018-11-22T19:18:08.234Z,33.77
2018-11-22T19:20:38.298Z,38.10
2018-11-22T19:23:07.772Z,33.70
2018-11-22T19:25:39.866Z,32.00
2018-11-22T19:28:09.821Z,33.87
2018-11-22T19:30:40.017Z,32.07
2018-11-22T19:33:09.985Z,33.07
2018-11-22T19:35:40.553Z,35.13
2018-11-22T19:38:09.099Z,34.77
2018-11-22T19:40:38.838Z,32.83
2018-11-22T19:43:09.848Z,33.23
2018-11-22T19:45:40.164Z,33.37
2018-11-22T19:48:09.075Z,35.10
2018-11-22T19:50:37.637Z,33.27
2018-11-22T19:53:09.742Z,33.13
2018-11-22T19:55:38.913Z,32.67
2018-11-22T19:58:09.535Z,30.03
2018-11-22T20:00:39.591Z,32.83
2018-11-22T20:03:08.896Z,31.00
2018-11-22T20:05:39.053Z,29.90
2018-11-22T20:08:09.125Z,28.87
2018-11-22T20:10:39.477Z,31.77
2018-11-22T20:13:08.222Z,29.33
2018-11-22T20:15:37.096Z,30.77
2018-11-22T20:18:08.061Z,29.47
2018-11-22T20:20:36.663Z,30.60
2018-11-22T20:23:06.174Z,31.57
2018-11-22T20:25:36.743Z,33.60
2018-11-22T20:28:05.869Z,32.43
2018-11-22T20:30:37.539Z,30.33
2018-11-22T20:33:06.232Z,30.13
2018-11-22T20:35:35.322Z,31.50
2018-11-22T20:38:04.471Z,29.77
2018-11-22T20:40:33.498Z,30.87
2018-11-22T20:43:02.319Z,29.50
2018-11-22T20:45:31.643Z,30.53
2018-11-22T20:48:01.679Z,30.77
2018-11-22T20:50:30.593Z,29.80
2018-11-22T20:53:00.203Z,30.10
2018-11-22T20:55:30.212Z,30.00
2018-11-22T20:58:00.097Z,29.60
2018-11-22T21:00:29.875Z,29.70
2018-11-22T21:03:01.256Z,29.63
2018-11-22T21:05:30.595Z,29.43
2018-11-22T21:07:59.127Z,29.70
2018-11-22T21:10:29.050Z,28.67
2018-11-22T21:12:57.782Z,31.97
2018-11-22T21:15:29.160Z,30.90
2018-11-22T21:17:59.236Z,31.20
2018-11-22T21:20:29.792Z,30.00
2018-11-22T21:22:58.309Z,31.47
2018-11-22T21:25:27.299Z,29.40
2018-11-22T21:27:56.227Z,32.87
2018-11-22T21:30:30.605Z,28.50
2018-11-22T21:32:59.748Z,30.47
2018-11-22T21:35:29.975Z,28.57
2018-11-22T21:37:59.601Z,31.77
2018-11-22T21:40:28.909Z,29.77
2018-11-22T21:42:57.497Z,30.07
2018-11-22T21:45:26.627Z,30.10
2018-11-22T21:47:55.217Z,27.43
2018-11-22T21:50:25.010Z,28.33
2018-11-22T21:52:53.513Z,27.60
2018-11-22T21:55:23.293Z,28.80
2018-11-22T21:57:52.861Z,27.60
2018-11-22T22:00:24.220Z,30.17
2018-11-22T22:02:55.092Z,27.90
2018-11-22T22:05:23.605Z,27.90
2018-11-22T22:07:52.122Z,28.27
2018-11-22T22:10:20.776Z,25.97
2018-11-22T22:12:49.555Z,27.47
2018-11-22T22:15:19.628Z,26.97
2018-11-22T22:17:48.467Z,29.83
2018-11-22T22:20:18.579Z,28.63
2018-11-22T22:22:47.053Z,28.40
2018-11-22T22:25:17.112Z,25.93
2018-11-22T22:27:46.080Z,28.73
2018-11-22T22:30:16.216Z,27.37
2018-11-22T22:32:45.509Z,26.03
2018-11-22T22:35:13.962Z,25.50
2018-11-22T22:37:42.634Z,24.93
2018-11-22T22:40:13.640Z,26.93
2018-11-22T22:42:43.324Z,25.90
2018-11-22T22:45:12.723Z,24.80
2018-11-22T22:47:41.509Z,25.37
2018-11-22T22:50:12.971Z,24.83
2018-11-22T22:52:41.460Z,23.67
2018-11-22T22:55:10.693Z,26.80
2018-11-22T22:57:39.633Z,26.43
2018-11-22T23:00:22.530Z,27.20
2018-11-22T23:02:59.934Z,25.20
2018-11-22T23:05:29.166Z,24.70
2018-11-22T23:07:57.669Z,26.10
2018-11-22T23:10:26.338Z,24.23
2018-11-22T23:12:55.521Z,22.53
2018-11-22T23:15:24.583Z,18.90
2018-11-22T23:17:53.279Z,17.63
2018-11-22T23:20:24.295Z,17.27
2018-11-22T23:22:53.029Z,16.80
2018-11-22T23:25:22.568Z,15.57
2018-11-22T23:27:51.119Z,18.70
2018-11-22T23:30:22.193Z,17.00
2018-11-22T23:32:53.978Z,16.07
2018-11-22T23:35:22.841Z,18.50
2018-11-22T23:37:51.834Z,17.37
2018-11-22T23:40:23.764Z,18.00
2018-11-22T23:42:52.347Z,17.03
2018-11-22T23:45:22.131Z,18.37
2018-11-22T23:47:50.963Z,16.30
2018-11-22T23:50:20.899Z,14.60
2018-11-22T23:52:50.651Z,14.57
2018-11-22T23:55:19.152Z,15.93
2018-11-22T23:57:47.701Z,15.90
